sensor_id;sensor_type;location;lat;lon;timestamp;P1;durP1;ratioP1;P2;durP2;ratioP2
45476;SDS011;31958;51.756;-2.556;2022-08-11T00:01:56;3.83;;;1.67;;
45476;SDS011;31958;51.756;-2.556;2022-08-11T00:04:24;4.50;;;1.85;;
45476;SDS011;31958;51.756;-2.556;2022-08-11T00:06:50;6.78;;;1.73;;
45476;SDS011;31958;51.756;-2.556;2022-08-11T00:09:17;4.10;;;1.67;;
45476;SDS011;31958;51.756;-2.556;2022-08-11T00:11:52;4.70;;;1.90;;
45476;SDS011;31958;51.756;-2.556;2022-08-11T00:14:25;5.30;;;1.75;;
45476;SDS011;31958;51.756;-2.556;2022-08-11T00:16:56;4.90;;;1.70;;
45476;SDS011;31958;51.756;-2.556;2022-08-11T00:19:22;3.22;;;1.80;;
45476;SDS011;31958;51.756;-2.556;2022-08-11T00:21:48;5.80;;;2.00;;
45476;SDS011;31958;51.756;-2.556;2022-08-11T00:24:13;4.70;;;2.20;;
45476;SDS011;31958;51.756;-2.556;2022-08-11T00:26:40;6.03;;;1.80;;
45476;SDS011;31958;51.756;-2.556;2022-08-11T00:29:11;2.90;;;1.90;;
45476;SDS011;31958;51.756;-2.556;2022-08-11T00:31:37;2.72;;;1.80;;
45476;SDS011;31958;51.756;-2.556;2022-08-11T00:34:03;3.20;;;1.90;;
45476;SDS011;31958;51.756;-2.556;2022-08-11T00:36:37;3.28;;;1.90;;
45476;SDS011;31958;51.756;-2.556;2022-08-11T00:39:04;3.00;;;1.85;;
45476;SDS011;31958;51.756;-2.556;2022-08-11T00:46:56;3.70;;;1.75;;
45476;SDS011;31958;51.756;-2.556;2022-08-11T00:59:53;2.83;;;1.85;;
45476;SDS011;31958;51.756;-2.556;2022-08-11T01:02:18;3.38;;;1.55;;
45476;SDS011;31958;51.756;-2.556;2022-08-11T01:18:43;2.88;;;1.80;;
45476;SDS011;31958;51.756;-2.556;2022-08-11T01:23:56;4.45;;;2.08;;
45476;SDS011;31958;51.756;-2.556;2022-08-11T01:39:16;3.45;;;2.00;;
45476;SDS011;31958;51.756;-2.556;2022-08-11T01:42:00;6.65;;;1.90;;
45476;SDS011;31958;51.756;-2.556;2022-08-11T01:52:44;3.78;;;1.75;;
45476;SDS011;31958;51.756;-2.556;2022-08-11T01:55:46;2.80;;;2.00;;
45476;SDS011;31958;51.756;-2.556;2022-08-11T01:58:07;3.83;;;2.03;;
45476;SDS011;31958;51.756;-2.556;2022-08-11T02:00:43;3.50;;;2.00;;
45476;SDS011;31958;51.756;-2.556;2022-08-11T02:08:09;5.35;;;2.20;;
45476;SDS011;31958;51.756;-2.556;2022-08-11T02:10:43;3.42;;;2.05;;
45476;SDS011;31958;51.756;-2.556;2022-08-11T02:16:02;4.93;;;2.13;;
45476;SDS011;31958;51.756;-2.556;2022-08-11T02:18:33;3.55;;;1.90;;
45476;SDS011;31958;51.756;-2.556;2022-08-11T02:21:18;3.17;;;1.90;;
45476;SDS011;31958;51.756;-2.556;2022-08-11T02:24:05;3.67;;;1.98;;
45476;SDS011;31958;51.756;-2.556;2022-08-11T02:29:17;5.35;;;1.92;;
45476;SDS011;31958;51.756;-2.556;2022-08-11T02:34:48;6.32;;;2.50;;
45476;SDS011;31958;51.756;-2.556;2022-08-11T02:42:33;5.45;;;2.15;;
45476;SDS011;31958;51.756;-2.556;2022-08-11T02:47:35;3.38;;;1.98;;
45476;SDS011;31958;51.756;-2.556;2022-08-11T02:50:20;4.25;;;2.03;;
45476;SDS011;31958;51.756;-2.556;2022-08-11T02:52:54;4.05;;;1.95;;
45476;SDS011;31958;51.756;-2.556;2022-08-11T03:01:04;4.40;;;2.40;;
45476;SDS011;31958;51.756;-2.556;2022-08-11T03:03:36;6.22;;;2.22;;
45476;SDS011;31958;51.756;-2.556;2022-08-11T03:17:24;3.00;;;2.10;;
45476;SDS011;31958;51.756;-2.556;2022-08-11T03:22:18;3.97;;;2.38;;
45476;SDS011;31958;51.756;-2.556;2022-08-11T03:25:02;6.85;;;2.15;;
45476;SDS011;31958;51.756;-2.556;2022-08-11T03:27:47;4.20;;;1.90;;
45476;SDS011;31958;51.756;-2.556;2022-08-11T03:35:44;4.88;;;2.80;;
45476;SDS011;31958;51.756;-2.556;2022-08-11T03:38:13;4.10;;;2.58;;
45476;SDS011;31958;51.756;-2.556;2022-08-11T03:48:18;5.88;;;2.58;;
45476;SDS011;31958;51.756;-2.556;2022-08-11T04:03:57;5.65;;;2.63;;
45476;SDS011;31958;51.756;-2.556;2022-08-11T04:11:48;5.35;;;2.67;;
45476;SDS011;31958;51.756;-2.556;2022-08-11T04:22:41;5.68;;;2.80;;
45476;SDS011;31958;51.756;-2.556;2022-08-11T04:30:15;10.88;;;3.10;;
45476;SDS011;31958;51.756;-2.556;2022-08-11T04:37:55;5.55;;;3.13;;
45476;SDS011;31958;51.756;-2.556;2022-08-11T04:54:20;5.75;;;3.10;;
45476;SDS011;31958;51.756;-2.556;2022-08-11T04:57:19;9.20;;;3.42;;
45476;SDS011;31958;51.756;-2.556;2022-08-11T05:00:09;7.00;;;2.92;;
45476;SDS011;31958;51.756;-2.556;2022-08-11T05:13:11;6.18;;;3.28;;
45476;SDS011;31958;51.756;-2.556;2022-08-11T05:16:07;5.18;;;3.15;;
45476;SDS011;31958;51.756;-2.556;2022-08-11T05:18:53;6.68;;;3.15;;
45476;SDS011;31958;51.756;-2.556;2022-08-11T05:21:37;6.03;;;3.17;;
45476;SDS011;31958;51.756;-2.556;2022-08-11T05:24:22;5.88;;;3.30;;
45476;SDS011;31958;51.756;-2.556;2022-08-11T05:27:07;6.20;;;3.63;;
45476;SDS011;31958;51.756;-2.556;2022-08-11T05:30:04;5.95;;;2.90;;
45476;SDS011;31958;51.756;-2.556;2022-08-11T05:32:56;6.57;;;2.78;;
45476;SDS011;31958;51.756;-2.556;2022-08-11T05:35:42;6.28;;;2.90;;
45476;SDS011;31958;51.756;-2.556;2022-08-11T05:38:21;4.93;;;2.75;;
45476;SDS011;31958;51.756;-2.556;2022-08-11T05:41:06;5.05;;;2.83;;
45476;SDS011;31958;51.756;-2.556;2022-08-11T05:43:51;5.25;;;2.90;;
45476;SDS011;31958;51.756;-2.556;2022-08-11T05:46:39;4.38;;;2.55;;
45476;SDS011;31958;51.756;-2.556;2022-08-11T05:49:24;4.13;;;2.10;;
45476;SDS011;31958;51.756;-2.556;2022-08-11T05:52:15;2.95;;;1.52;;
45476;SDS011;31958;51.756;-2.556;2022-08-11T05:55:03;3.67;;;1.77;;
45476;SDS011;31958;51.756;-2.556;2022-08-11T05:57:47;3.05;;;1.73;;
45476;SDS011;31958;51.756;-2.556;2022-08-11T06:00:13;2.30;;;1.40;;
45476;SDS011;31958;51.756;-2.556;2022-08-11T06:02:41;4.20;;;1.58;;
45476;SDS011;31958;51.756;-2.556;2022-08-11T06:05:07;3.28;;;1.35;;
45476;SDS011;31958;51.756;-2.556;2022-08-11T06:07:33;5.07;;;1.48;;
45476;SDS011;31958;51.756;-2.556;2022-08-11T06:09:59;5.50;;;1.40;;
45476;SDS011;31958;51.756;-2.556;2022-08-11T06:12:33;4.78;;;1.20;;
45476;SDS011;31958;51.756;-2.556;2022-08-11T06:15:05;5.18;;;1.40;;
45476;SDS011;31958;51.756;-2.556;2022-08-11T06:17:31;2.35;;;1.40;;
45476;SDS011;31958;51.756;-2.556;2022-08-11T06:19:58;2.53;;;1.38;;
45476;SDS011;31958;51.756;-2.556;2022-08-11T06:22:23;2.13;;;1.30;;
45476;SDS011;31958;51.756;-2.556;2022-08-11T06:24:50;2.60;;;1.30;;
45476;SDS011;31958;51.756;-2.556;2022-08-11T06:27:23;4.60;;;1.35;;
45476;SDS011;31958;51.756;-2.556;2022-08-11T06:29:50;7.18;;;1.80;;
45476;SDS011;31958;51.756;-2.556;2022-08-11T06:32:16;5.03;;;1.40;;
45476;SDS011;31958;51.756;-2.556;2022-08-11T06:40:15;4.97;;;1.50;;
45476;SDS011;31958;51.756;-2.556;2022-08-11T06:42:51;4.07;;;1.60;;
45476;SDS011;31958;51.756;-2.556;2022-08-11T06:45:25;4.13;;;1.77;;
45476;SDS011;31958;51.756;-2.556;2022-08-11T06:47:51;3.03;;;1.30;;
45476;SDS011;31958;51.756;-2.556;2022-08-11T06:50:17;3.65;;;1.48;;
45476;SDS011;31958;51.756;-2.556;2022-08-11T06:53:03;4.80;;;1.40;;
45476;SDS011;31958;51.756;-2.556;2022-08-11T06:55:29;3.08;;;1.23;;
45476;SDS011;31958;51.756;-2.556;2022-08-11T06:58:15;4.82;;;1.42;;
45476;SDS011;31958;51.756;-2.556;2022-08-11T07:00:59;4.97;;;1.50;;
45476;SDS011;31958;51.756;-2.556;2022-08-11T07:03:27;4.45;;;1.73;;
45476;SDS011;31958;51.756;-2.556;2022-08-11T07:11:29;2.53;;;1.40;;
45476;SDS011;31958;51.756;-2.556;2022-08-11T07:14:18;3.50;;;1.30;;
45476;SDS011;31958;51.756;-2.556;2022-08-11T07:17:03;3.15;;;1.40;;
45476;SDS011;31958;51.756;-2.556;2022-08-11T07:19:30;3.22;;;1.67;;
45476;SDS011;31958;51.756;-2.556;2022-08-11T07:22:25;3.70;;;1.42;;
45476;SDS011;31958;51.756;-2.556;2022-08-11T07:25:12;3.17;;;1.70;;
45476;SDS011;31958;51.756;-2.556;2022-08-11T07:28:02;4.85;;;1.70;;
45476;SDS011;31958;51.756;-2.556;2022-08-11T07:30:46;4.05;;;1.95;;
45476;SDS011;31958;51.756;-2.556;2022-08-11T07:33:13;4.32;;;1.70;;
45476;SDS011;31958;51.756;-2.556;2022-08-11T07:35:47;3.47;;;1.83;;
45476;SDS011;31958;51.756;-2.556;2022-08-11T07:38:15;4.47;;;1.50;;
45476;SDS011;31958;51.756;-2.556;2022-08-11T07:40:42;2.85;;;1.58;;
45476;SDS011;31958;51.756;-2.556;2022-08-11T07:43:10;2.83;;;1.65;;
45476;SDS011;31958;51.756;-2.556;2022-08-11T07:45:40;3.65;;;1.70;;
45476;SDS011;31958;51.756;-2.556;2022-08-11T07:48:24;4.18;;;1.58;;
45476;SDS011;31958;51.756;-2.556;2022-08-11T07:51:08;2.47;;;1.70;;
45476;SDS011;31958;51.756;-2.556;2022-08-11T07:53:52;3.40;;;1.55;;
45476;SDS011;31958;51.756;-2.556;2022-08-11T07:56:17;3.15;;;1.77;;
45476;SDS011;31958;51.756;-2.556;2022-08-11T07:58:43;3.20;;;1.70;;
45476;SDS011;31958;51.756;-2.556;2022-08-11T08:01:27;6.35;;;2.00;;
45476;SDS011;31958;51.756;-2.556;2022-08-11T08:04:13;5.72;;;1.83;;
45476;SDS011;31958;51.756;-2.556;2022-08-11T08:06:57;5.30;;;1.77;;
45476;SDS011;31958;51.756;-2.556;2022-08-11T08:09:42;6.65;;;2.20;;
45476;SDS011;31958;51.756;-2.556;2022-08-11T08:12:26;4.47;;;1.85;;
45476;SDS011;31958;51.756;-2.556;2022-08-11T08:15:10;5.72;;;2.10;;
45476;SDS011;31958;51.756;-2.556;2022-08-11T08:17:59;3.83;;;1.80;;
45476;SDS011;31958;51.756;-2.556;2022-08-11T08:20:29;5.43;;;1.98;;
45476;SDS011;31958;51.756;-2.556;2022-08-11T08:22:56;3.25;;;1.83;;
45476;SDS011;31958;51.756;-2.556;2022-08-11T08:25:25;5.68;;;2.17;;
45476;SDS011;31958;51.756;-2.556;2022-08-11T08:27:51;4.90;;;2.08;;
45476;SDS011;31958;51.756;-2.556;2022-08-11T08:30:17;5.68;;;2.00;;
45476;SDS011;31958;51.756;-2.556;2022-08-11T08:33:01;9.00;;;2.20;;
45476;SDS011;31958;51.756;-2.556;2022-08-11T08:35:27;6.50;;;2.60;;
45476;SDS011;31958;51.756;-2.556;2022-08-11T08:37:54;3.85;;;2.00;;
45476;SDS011;31958;51.756;-2.556;2022-08-11T08:40:19;5.60;;;2.08;;
45476;SDS011;31958;51.756;-2.556;2022-08-11T08:42:48;5.22;;;1.98;;
45476;SDS011;31958;51.756;-2.556;2022-08-11T08:45:16;3.78;;;2.10;;
45476;SDS011;31958;51.756;-2.556;2022-08-11T08:47:44;5.88;;;1.90;;
45476;SDS011;31958;51.756;-2.556;2022-08-11T08:50:12;4.18;;;2.00;;
45476;SDS011;31958;51.756;-2.556;2022-08-11T08:52:43;6.03;;;2.20;;
45476;SDS011;31958;51.756;-2.556;2022-08-11T08:55:15;8.80;;;2.40;;
45476;SDS011;31958;51.756;-2.556;2022-08-11T08:57:41;7.43;;;1.85;;
45476;SDS011;31958;51.756;-2.556;2022-08-11T09:00:07;4.20;;;1.77;;
45476;SDS011;31958;51.756;-2.556;2022-08-11T09:02:33;5.25;;;2.03;;
45476;SDS011;31958;51.756;-2.556;2022-08-11T09:04:59;7.55;;;1.70;;
45476;SDS011;31958;51.756;-2.556;2022-08-11T09:07:24;4.75;;;1.70;;
45476;SDS011;31958;51.756;-2.556;2022-08-11T09:09:51;7.03;;;1.90;;
45476;SDS011;31958;51.756;-2.556;2022-08-11T09:12:17;4.30;;;1.95;;
45476;SDS011;31958;51.756;-2.556;2022-08-11T09:14:44;4.85;;;1.52;;
45476;SDS011;31958;51.756;-2.556;2022-08-11T09:17:29;8.25;;;1.80;;
45476;SDS011;31958;51.756;-2.556;2022-08-11T09:19:58;5.25;;;1.70;;
45476;SDS011;31958;51.756;-2.556;2022-08-11T09:22:31;5.40;;;1.73;;
45476;SDS011;31958;51.756;-2.556;2022-08-11T09:25:16;4.50;;;1.60;;
45476;SDS011;31958;51.756;-2.556;2022-08-11T09:28:00;7.05;;;1.50;;
45476;SDS011;31958;51.756;-2.556;2022-08-11T09:30:26;3.05;;;1.40;;
45476;SDS011;31958;51.756;-2.556;2022-08-11T09:32:55;2.63;;;1.30;;
45476;SDS011;31958;51.756;-2.556;2022-08-11T09:35:27;2.85;;;1.38;;
45476;SDS011;31958;51.756;-2.556;2022-08-11T09:37:53;7.07;;;1.30;;
45476;SDS011;31958;51.756;-2.556;2022-08-11T09:40:37;2.80;;;1.20;;
45476;SDS011;31958;51.756;-2.556;2022-08-11T09:43:04;4.05;;;1.10;;
45476;SDS011;31958;51.756;-2.556;2022-08-11T09:45:49;2.85;;;1.38;;
45476;SDS011;31958;51.756;-2.556;2022-08-11T09:48:18;8.55;;;1.15;;
45476;SDS011;31958;51.756;-2.556;2022-08-11T09:50:44;5.65;;;1.30;;
45476;SDS011;31958;51.756;-2.556;2022-08-11T09:53:12;3.63;;;1.40;;
45476;SDS011;31958;51.756;-2.556;2022-08-11T09:55:39;5.65;;;1.20;;
45476;SDS011;31958;51.756;-2.556;2022-08-11T09:58:05;1.98;;;1.10;;
45476;SDS011;31958;51.756;-2.556;2022-08-11T10:00:41;5.53;;;0.90;;
45476;SDS011;31958;51.756;-2.556;2022-08-11T10:03:11;3.72;;;1.17;;
45476;SDS011;31958;51.756;-2.556;2022-08-11T10:05:36;4.95;;;1.15;;
45476;SDS011;31958;51.756;-2.556;2022-08-11T10:08:21;2.25;;;1.20;;
45476;SDS011;31958;51.756;-2.556;2022-08-11T10:10:47;2.67;;;1.10;;
45476;SDS011;31958;51.756;-2.556;2022-08-11T10:13:17;2.90;;;1.02;;
45476;SDS011;31958;51.756;-2.556;2022-08-11T10:15:43;1.98;;;1.10;;
45476;SDS011;31958;51.756;-2.556;2022-08-11T10:18:17;2.83;;;0.98;;
45476;SDS011;31958;51.756;-2.556;2022-08-11T10:21:06;1.35;;;0.90;;
45476;SDS011;31958;51.756;-2.556;2022-08-11T10:23:34;2.30;;;0.95;;
45476;SDS011;31958;51.756;-2.556;2022-08-11T10:26:19;3.70;;;1.30;;
45476;SDS011;31958;51.756;-2.556;2022-08-11T10:29:04;4.32;;;1.20;;
45476;SDS011;31958;51.756;-2.556;2022-08-11T10:31:49;3.78;;;1.05;;
45476;SDS011;31958;51.756;-2.556;2022-08-11T10:34:33;4.20;;;1.00;;
45476;SDS011;31958;51.756;-2.556;2022-08-11T10:36:59;2.17;;;1.00;;
45476;SDS011;31958;51.756;-2.556;2022-08-11T10:39:27;2.35;;;1.00;;
45476;SDS011;31958;51.756;-2.556;2022-08-11T10:41:52;2.03;;;1.00;;
45476;SDS011;31958;51.756;-2.556;2022-08-11T10:44:38;5.00;;;1.23;;
45476;SDS011;31958;51.756;-2.556;2022-08-11T10:47:04;6.03;;;1.30;;
45476;SDS011;31958;51.756;-2.556;2022-08-11T10:49:48;2.53;;;1.10;;
45476;SDS011;31958;51.756;-2.556;2022-08-11T10:52:35;2.00;;;1.10;;
45476;SDS011;31958;51.756;-2.556;2022-08-11T10:55:19;1.80;;;0.95;;
45476;SDS011;31958;51.756;-2.556;2022-08-11T10:58:03;2.22;;;1.20;;
45476;SDS011;31958;51.756;-2.556;2022-08-11T11:00:47;2.45;;;1.30;;
45476;SDS011;31958;51.756;-2.556;2022-08-11T11:03:14;2.53;;;1.27;;
45476;SDS011;31958;51.756;-2.556;2022-08-11T11:05:39;3.90;;;1.25;;
45476;SDS011;31958;51.756;-2.556;2022-08-11T11:08:16;2.22;;;0.90;;
45476;SDS011;31958;51.756;-2.556;2022-08-11T11:11:02;1.98;;;1.08;;
45476;SDS011;31958;51.756;-2.556;2022-08-11T11:13:30;2.05;;;0.98;;
45476;SDS011;31958;51.756;-2.556;2022-08-11T11:16:14;1.80;;;0.95;;
45476;SDS011;31958;51.756;-2.556;2022-08-11T11:18:59;3.05;;;1.20;;
45476;SDS011;31958;51.756;-2.556;2022-08-11T11:21:26;3.15;;;1.17;;
45476;SDS011;31958;51.756;-2.556;2022-08-11T11:24:03;6.05;;;1.20;;
45476;SDS011;31958;51.756;-2.556;2022-08-11T11:31:48;10.85;;;1.60;;
45476;SDS011;31958;51.756;-2.556;2022-08-11T11:37:00;3.45;;;1.30;;
45476;SDS011;31958;51.756;-2.556;2022-08-11T11:39:28;2.00;;;1.00;;
45476;SDS011;31958;51.756;-2.556;2022-08-11T11:41:56;2.88;;;1.10;;
45476;SDS011;31958;51.756;-2.556;2022-08-11T11:44:23;3.15;;;1.00;;
45476;SDS011;31958;51.756;-2.556;2022-08-11T11:46:49;3.85;;;1.08;;
45476;SDS011;31958;51.756;-2.556;2022-08-11T11:49:18;4.53;;;1.30;;
45476;SDS011;31958;51.756;-2.556;2022-08-11T11:51:47;3.10;;;1.20;;
45476;SDS011;31958;51.756;-2.556;2022-08-11T11:54:13;2.20;;;1.25;;
45476;SDS011;31958;51.756;-2.556;2022-08-11T11:56:38;3.75;;;1.33;;
45476;SDS011;31958;51.756;-2.556;2022-08-11T11:59:05;2.55;;;1.15;;
45476;SDS011;31958;51.756;-2.556;2022-08-11T12:01:57;3.40;;;1.05;;
45476;SDS011;31958;51.756;-2.556;2022-08-11T12:04:23;3.65;;;1.30;;
45476;SDS011;31958;51.756;-2.556;2022-08-11T12:06:49;4.72;;;1.13;;
45476;SDS011;31958;51.756;-2.556;2022-08-11T12:09:16;3.13;;;0.90;;
45476;SDS011;31958;51.756;-2.556;2022-08-11T12:11:47;5.30;;;1.10;;
45476;SDS011;31958;51.756;-2.556;2022-08-11T12:14:32;5.95;;;0.90;;
45476;SDS011;31958;51.756;-2.556;2022-08-11T12:16:57;3.65;;;1.20;;
45476;SDS011;31958;51.756;-2.556;2022-08-11T12:19:23;2.50;;;1.08;;
45476;SDS011;31958;51.756;-2.556;2022-08-11T12:21:50;4.35;;;1.20;;
45476;SDS011;31958;51.756;-2.556;2022-08-11T12:24:35;3.25;;;1.30;;
45476;SDS011;31958;51.756;-2.556;2022-08-11T12:27:19;5.00;;;1.10;;
45476;SDS011;31958;51.756;-2.556;2022-08-11T12:32:19;4.28;;;1.00;;
45476;SDS011;31958;51.756;-2.556;2022-08-11T12:34:45;4.15;;;1.10;;
45476;SDS011;31958;51.756;-2.556;2022-08-11T12:37:10;2.78;;;1.30;;
45476;SDS011;31958;51.756;-2.556;2022-08-11T12:39:38;3.50;;;1.10;;
45476;SDS011;31958;51.756;-2.556;2022-08-11T12:42:25;2.42;;;0.90;;
45476;SDS011;31958;51.756;-2.556;2022-08-11T12:45:11;2.00;;;1.05;;
45476;SDS011;31958;51.756;-2.556;2022-08-11T12:47:52;2.08;;;1.05;;
45476;SDS011;31958;51.756;-2.556;2022-08-11T12:50:37;1.90;;;0.90;;
45476;SDS011;31958;51.756;-2.556;2022-08-11T12:53:26;4.20;;;1.25;;
45476;SDS011;31958;51.756;-2.556;2022-08-11T12:55:53;1.77;;;1.00;;
45476;SDS011;31958;51.756;-2.556;2022-08-11T12:58:39;3.20;;;0.98;;
45476;SDS011;31958;51.756;-2.556;2022-08-11T13:01:05;4.13;;;1.10;;
45476;SDS011;31958;51.756;-2.556;2022-08-11T13:03:49;4.93;;;1.23;;
45476;SDS011;31958;51.756;-2.556;2022-08-11T13:06:33;5.95;;;1.50;;
45476;SDS011;31958;51.756;-2.556;2022-08-11T13:08:58;3.33;;;1.13;;
45476;SDS011;31958;51.756;-2.556;2022-08-11T13:11:24;1.65;;;0.85;;
45476;SDS011;31958;51.756;-2.556;2022-08-11T13:14:08;2.22;;;0.93;;
45476;SDS011;31958;51.756;-2.556;2022-08-11T13:16:34;2.70;;;1.00;;
45476;SDS011;31958;51.756;-2.556;2022-08-11T13:19:21;2.78;;;0.80;;
45476;SDS011;31958;51.756;-2.556;2022-08-11T13:21:48;2.95;;;1.00;;
45476;SDS011;31958;51.756;-2.556;2022-08-11T13:24:13;1.65;;;0.90;;
45476;SDS011;31958;51.756;-2.556;2022-08-11T13:26:39;2.13;;;0.93;;
45476;SDS011;31958;51.756;-2.556;2022-08-11T13:29:06;4.30;;;1.10;;
45476;SDS011;31958;51.756;-2.556;2022-08-11T13:31:32;2.85;;;0.90;;
45476;SDS011;31958;51.756;-2.556;2022-08-11T13:33:57;2.33;;;1.05;;
45476;SDS011;31958;51.756;-2.556;2022-08-11T13:36:23;2.92;;;0.90;;
45476;SDS011;31958;51.756;-2.556;2022-08-11T13:38:52;2.75;;;1.23;;
45476;SDS011;31958;51.756;-2.556;2022-08-11T13:41:18;3.65;;;1.02;;
45476;SDS011;31958;51.756;-2.556;2022-08-11T13:44:03;2.88;;;1.02;;
45476;SDS011;31958;51.756;-2.556;2022-08-11T13:46:28;1.95;;;1.02;;
45476;SDS011;31958;51.756;-2.556;2022-08-11T13:48:55;4.53;;;0.98;;
45476;SDS011;31958;51.756;-2.556;2022-08-11T13:51:21;3.17;;;1.00;;
45476;SDS011;31958;51.756;-2.556;2022-08-11T13:56:28;1.63;;;0.80;;
45476;SDS011;31958;51.756;-2.556;2022-08-11T13:58:55;2.03;;;1.05;;
45476;SDS011;31958;51.756;-2.556;2022-08-11T14:01:20;3.42;;;0.80;;
45476;SDS011;31958;51.756;-2.556;2022-08-11T14:03:48;2.15;;;1.40;;
45476;SDS011;31958;51.756;-2.556;2022-08-11T14:06:14;2.28;;;0.90;;
45476;SDS011;31958;51.756;-2.556;2022-08-11T14:08:41;3.38;;;1.00;;
45476;SDS011;31958;51.756;-2.556;2022-08-11T14:11:07;3.08;;;0.90;;
45476;SDS011;31958;51.756;-2.556;2022-08-11T14:13:51;2.63;;;1.00;;
45476;SDS011;31958;51.756;-2.556;2022-08-11T14:16:25;2.80;;;1.10;;
45476;SDS011;31958;51.756;-2.556;2022-08-11T14:18:53;1.42;;;0.80;;
45476;SDS011;31958;51.756;-2.556;2022-08-11T14:21:18;3.47;;;1.10;;
45476;SDS011;31958;51.756;-2.556;2022-08-11T14:24:03;4.22;;;0.80;;
45476;SDS011;31958;51.756;-2.556;2022-08-11T14:26:29;1.92;;;0.90;;
45476;SDS011;31958;51.756;-2.556;2022-08-11T14:29:21;3.90;;;0.90;;
45476;SDS011;31958;51.756;-2.556;2022-08-11T14:31:46;2.35;;;1.00;;
45476;SDS011;31958;51.756;-2.556;2022-08-11T14:34:12;1.83;;;1.02;;
45476;SDS011;31958;51.756;-2.556;2022-08-11T14:36:39;2.80;;;0.90;;
45476;SDS011;31958;51.756;-2.556;2022-08-11T14:39:14;2.88;;;1.13;;
45476;SDS011;31958;51.756;-2.556;2022-08-11T14:41:59;2.30;;;1.05;;
45476;SDS011;31958;51.756;-2.556;2022-08-11T14:44:47;1.98;;;1.00;;
45476;SDS011;31958;51.756;-2.556;2022-08-11T14:47:35;3.25;;;1.05;;
45476;SDS011;31958;51.756;-2.556;2022-08-11T14:50:01;2.85;;;1.10;;
45476;SDS011;31958;51.756;-2.556;2022-08-11T14:52:27;2.75;;;0.90;;
45476;SDS011;31958;51.756;-2.556;2022-08-11T14:54:55;3.75;;;1.10;;
45476;SDS011;31958;51.756;-2.556;2022-08-11T14:57:39;2.58;;;1.00;;
45476;SDS011;31958;51.756;-2.556;2022-08-11T15:00:06;2.25;;;0.93;;
45476;SDS011;31958;51.756;-2.556;2022-08-11T15:02:35;4.80;;;1.02;;
45476;SDS011;31958;51.756;-2.556;2022-08-11T15:05:20;2.20;;;1.00;;
45476;SDS011;31958;51.756;-2.556;2022-08-11T15:07:46;4.38;;;1.25;;
45476;SDS011;31958;51.756;-2.556;2022-08-11T15:10:11;2.55;;;1.08;;
45476;SDS011;31958;51.756;-2.556;2022-08-11T15:12:38;2.40;;;1.00;;
45476;SDS011;31958;51.756;-2.556;2022-08-11T15:15:04;2.90;;;1.10;;
45476;SDS011;31958;51.756;-2.556;2022-08-11T15:17:49;3.88;;;1.20;;
45476;SDS011;31958;51.756;-2.556;2022-08-11T15:20:16;4.60;;;0.90;;
45476;SDS011;31958;51.756;-2.556;2022-08-11T15:23:00;1.70;;;0.88;;
45476;SDS011;31958;51.756;-2.556;2022-08-11T15:25:46;1.80;;;0.90;;
45476;SDS011;31958;51.756;-2.556;2022-08-11T15:28:14;3.35;;;1.00;;
45476;SDS011;31958;51.756;-2.556;2022-08-11T15:30:58;4.72;;;1.00;;
45476;SDS011;31958;51.756;-2.556;2022-08-11T15:33:44;3.50;;;0.98;;
45476;SDS011;31958;51.756;-2.556;2022-08-11T15:36:30;2.35;;;0.90;;
45476;SDS011;31958;51.756;-2.556;2022-08-11T15:39:18;1.98;;;1.10;;
45476;SDS011;31958;51.756;-2.556;2022-08-11T15:41:52;2.80;;;1.08;;
45476;SDS011;31958;51.756;-2.556;2022-08-11T15:44:39;3.35;;;0.93;;
45476;SDS011;31958;51.756;-2.556;2022-08-11T15:47:24;2.85;;;0.95;;
45476;SDS011;31958;51.756;-2.556;2022-08-11T15:49:52;2.42;;;1.10;;
45476;SDS011;31958;51.756;-2.556;2022-08-11T15:52:20;3.20;;;0.93;;
45476;SDS011;31958;51.756;-2.556;2022-08-11T15:54:47;2.33;;;0.90;;
45476;SDS011;31958;51.756;-2.556;2022-08-11T15:57:14;2.88;;;0.90;;
45476;SDS011;31958;51.756;-2.556;2022-08-11T16:00:03;1.33;;;0.80;;
45476;SDS011;31958;51.756;-2.556;2022-08-11T16:02:48;5.30;;;1.00;;
45476;SDS011;31958;51.756;-2.556;2022-08-11T16:05:14;2.20;;;1.00;;
45476;SDS011;31958;51.756;-2.556;2022-08-11T16:07:41;2.88;;;0.90;;
45476;SDS011;31958;51.756;-2.556;2022-08-11T16:10:13;3.30;;;0.90;;
45476;SDS011;31958;51.756;-2.556;2022-08-11T16:15:49;2.10;;;0.90;;
45476;SDS011;31958;51.756;-2.556;2022-08-11T16:18:35;1.55;;;0.82;;
45476;SDS011;31958;51.756;-2.556;2022-08-11T16:21:15;1.85;;;0.90;;
45476;SDS011;31958;51.756;-2.556;2022-08-11T16:23:42;5.05;;;0.90;;
45476;SDS011;31958;51.756;-2.556;2022-08-11T16:26:08;3.15;;;1.00;;
45476;SDS011;31958;51.756;-2.556;2022-08-11T16:28:34;2.45;;;0.90;;
45476;SDS011;31958;51.756;-2.556;2022-08-11T16:31:00;5.60;;;0.80;;
45476;SDS011;31958;51.756;-2.556;2022-08-11T16:33:26;2.72;;;1.00;;
45476;SDS011;31958;51.756;-2.556;2022-08-11T16:35:52;1.85;;;0.90;;
45476;SDS011;31958;51.756;-2.556;2022-08-11T16:38:37;1.55;;;0.85;;
45476;SDS011;31958;51.756;-2.556;2022-08-11T16:41:08;1.55;;;0.82;;
45476;SDS011;31958;51.756;-2.556;2022-08-11T16:43:37;1.73;;;0.95;;
45476;SDS011;31958;51.756;-2.556;2022-08-11T16:46:22;3.13;;;1.00;;
45476;SDS011;31958;51.756;-2.556;2022-08-11T16:49:07;1.80;;;0.90;;
45476;SDS011;31958;51.756;-2.556;2022-08-11T16:51:34;2.38;;;1.08;;
45476;SDS011;31958;51.756;-2.556;2022-08-11T16:54:00;5.03;;;0.98;;
45476;SDS011;31958;51.756;-2.556;2022-08-11T16:59:01;2.05;;;1.10;;
45476;SDS011;31958;51.756;-2.556;2022-08-11T17:01:46;2.88;;;1.00;;
45476;SDS011;31958;51.756;-2.556;2022-08-11T17:06:57;2.28;;;0.82;;
45476;SDS011;31958;51.756;-2.556;2022-08-11T17:09:41;1.85;;;1.08;;
45476;SDS011;31958;51.756;-2.556;2022-08-11T17:12:27;3.03;;;1.10;;
45476;SDS011;31958;51.756;-2.556;2022-08-11T17:15:14;2.38;;;1.15;;
45476;SDS011;31958;51.756;-2.556;2022-08-11T17:17:58;2.25;;;0.80;;
45476;SDS011;31958;51.756;-2.556;2022-08-11T17:20:24;1.70;;;0.95;;
45476;SDS011;31958;51.756;-2.556;2022-08-11T17:22:50;2.10;;;0.90;;
45476;SDS011;31958;51.756;-2.556;2022-08-11T17:25:35;2.38;;;0.90;;
45476;SDS011;31958;51.756;-2.556;2022-08-11T17:28:01;1.90;;;0.95;;
45476;SDS011;31958;51.756;-2.556;2022-08-11T17:30:27;3.50;;;1.20;;
45476;SDS011;31958;51.756;-2.556;2022-08-11T17:33:13;1.52;;;0.80;;
45476;SDS011;31958;51.756;-2.556;2022-08-11T17:35:58;4.57;;;0.90;;
45476;SDS011;31958;51.756;-2.556;2022-08-11T17:38:24;2.20;;;1.10;;
45476;SDS011;31958;51.756;-2.556;2022-08-11T17:40:51;1.58;;;0.80;;
45476;SDS011;31958;51.756;-2.556;2022-08-11T17:43:35;2.50;;;0.80;;
45476;SDS011;31958;51.756;-2.556;2022-08-11T17:46:19;2.58;;;1.05;;
45476;SDS011;31958;51.756;-2.556;2022-08-11T17:49:17;2.25;;;0.90;;
45476;SDS011;31958;51.756;-2.556;2022-08-11T17:51:44;5.63;;;1.10;;
45476;SDS011;31958;51.756;-2.556;2022-08-11T17:54:28;2.10;;;0.88;;
45476;SDS011;31958;51.756;-2.556;2022-08-11T17:57:13;6.13;;;0.90;;
45476;SDS011;31958;51.756;-2.556;2022-08-11T17:59:58;3.80;;;1.02;;
45476;SDS011;31958;51.756;-2.556;2022-08-11T18:02:25;2.83;;;0.82;;
45476;SDS011;31958;51.756;-2.556;2022-08-11T18:05:11;3.42;;;1.10;;
45476;SDS011;31958;51.756;-2.556;2022-08-11T18:07:37;2.53;;;1.50;;
45476;SDS011;31958;51.756;-2.556;2022-08-11T18:10:21;1.80;;;0.98;;
45476;SDS011;31958;51.756;-2.556;2022-08-11T18:13:06;7.32;;;1.00;;
45476;SDS011;31958;51.756;-2.556;2022-08-11T18:15:50;2.13;;;0.93;;
45476;SDS011;31958;51.756;-2.556;2022-08-11T18:18:34;3.42;;;1.02;;
45476;SDS011;31958;51.756;-2.556;2022-08-11T18:21:18;1.75;;;0.80;;
45476;SDS011;31958;51.756;-2.556;2022-08-11T18:24:06;6.80;;;1.17;;
45476;SDS011;31958;51.756;-2.556;2022-08-11T18:26:51;4.70;;;1.05;;
45476;SDS011;31958;51.756;-2.556;2022-08-11T18:29:38;2.63;;;0.90;;
45476;SDS011;31958;51.756;-2.556;2022-08-11T18:32:22;1.70;;;0.90;;
45476;SDS011;31958;51.756;-2.556;2022-08-11T18:35:06;4.28;;;0.85;;
45476;SDS011;31958;51.756;-2.556;2022-08-11T18:37:52;2.05;;;1.00;;